Time;durP1;ratioP1;P1;durP2;ratioP2;P2;SDS_P1;SDS_P2;PMS_P1;PMS_P2;Temp;Humidity;BMP_temperature;BMP_pressure;BME280_temperature;BME280_humidity;BME280_pressure;Samples;Min_cycle;Max_cycle;Signal;HPM_P1;HPM_P2
2022/08/22 00:00:14;;;;;;;2.53;1.00;;;;;;;14.57;100.00;98270.63;5034204;28;20465;-60
2022/08/22 00:03:36;;;;;;;1.83;1.15;;;;;;;14.47;100.00;98269.78;5038405;28;20050;-61
2022/08/22 00:06:49;;;;;;;2.65;1.02;;;;;;;14.34;100.00;98257.78;5033069;28;20474;-59
2022/08/22 00:10:00;;;;;;;2.20;1.08;;;;;;;14.35;100.00;98263.84;5039407;28;20154;-60
2022/08/22 00:13:04;;;;;;;2.45;1.13;;;;;;;14.34;100.00;98267.47;5042526;28;20051;-60
2022/08/22 00:15:53;;;;;;;1.30;0.80;;;;;;;14.35;100.00;98269.97;5041248;28;20037;-60
2022/08/22 00:18:59;;;;;;;1.40;1.00;;;;;;;14.36;100.00;98260.25;5043695;28;20041;-60
2022/08/22 00:21:49;;;;;;;1.77;1.17;;;;;;;14.49;100.00;98262.59;5041927;28;20038;-59
2022/08/22 00:24:44;;;;;;;2.08;1.10;;;;;;;14.42;100.00;98257.06;5033710;28;20038;-59
2022/08/22 00:27:36;;;;;;;2.58;1.20;;;;;;;14.31;100.00;98258.06;5032296;28;20038;-61
2022/08/22 00:30:25;;;;;;;1.35;0.98;;;;;;;14.28;100.00;98256.53;5032243;28;20103;-61
2022/08/22 00:33:23;;;;;;;1.38;1.02;;;;;;;14.31;100.00;98258.06;5058734;28;20107;-64
2022/08/22 00:36:46;;;;;;;1.67;1.20;;;;;;;14.24;100.00;98247.25;5034227;28;20115;-62
2022/08/22 00:39:41;;;;;;;1.75;0.90;;;;;;;14.35;100.00;98256.78;5038169;28;20481;-61
2022/08/22 00:43:00;;;;;;;2.70;1.00;;;;;;;14.38;100.00;98256.50;5034048;28;20038;-59
2022/08/22 00:46:06;;;;;;;1.75;1.10;;;;;;;14.31;100.00;98258.06;5037746;28;20053;-60
2022/08/22 00:49:18;;;;;;;1.70;1.00;;;;;;;14.38;100.00;98256.50;5033347;28;20073;-59
2022/08/22 00:52:41;;;;;;;2.03;0.90;;;;;;;14.36;100.00;98252.34;5035294;28;20503;-60
2022/08/22 00:56:01;;;;;;;3.85;1.30;;;;;;;14.40;100.00;98248.44;5032090;28;20058;-62
2022/08/22 00:59:18;;;;;;;2.72;0.98;;;;;;;14.38;100.00;98242.47;5018131;28;20037;-60
2022/08/22 01:02:17;;;;;;;2.45;0.85;;;;;;;14.36;100.00;98245.25;4998751;28;20144;-60
2022/08/22 01:05:24;;;;;;;2.03;1.15;;;;;;;14.39;100.00;98250.25;5032667;28;20376;-61
2022/08/22 01:08:50;;;;;;;2.83;0.90;;;;;;;14.38;100.00;98239.84;5042065;28;20049;-60
2022/08/22 01:12:13;;;;;;;1.30;0.80;;;;;;;14.43;100.00;98239.44;5035062;28;20088;-62
2022/08/22 01:15:14;;;;;;;1.75;0.90;;;;;;;14.44;100.00;98231.41;5045178;28;20041;-61
2022/08/22 01:18:11;;;;;;;1.88;0.80;;;;;;;14.48;100.00;98238.03;5044206;28;20040;-59
2022/08/22 01:21:20;;;;;;;2.38;0.70;;;;;;;14.38;100.00;98234.59;5044470;28;20056;-61
2022/08/22 01:24:23;;;;;;;1.23;0.52;;;;;;;14.37;100.00;98233.78;5031374;28;20051;-58
2022/08/22 01:27:54;;;;;;;1.90;0.80;;;;;;;14.39;100.00;98229.16;5043887;28;20389;-60
2022/08/22 01:31:16;;;;;;;1.52;0.80;;;;;;;14.37;100.00;98227.66;5059791;28;20076;-61
2022/08/22 01:34:19;;;;;;;;;;;;;;;14.26;100.00;98224.22;5046583;28;20128;-61
2022/08/22 01:37:44;;;;;;;0.82;0.57;;;;;;;14.33;100.00;98221.03;5045004;28;19920;-61
2022/08/22 01:40:56;;;;;;;1.55;0.85;;;;;;;14.36;100.00;98229.44;5043474;28;20045;-60
2022/08/22 01:43:50;;;;;;;1.52;0.75;;;;;;;14.25;100.00;98222.56;5049197;28;20094;-60
2022/08/22 01:46:58;;;;;;;2.17;1.10;;;;;;;14.29;100.00;98217.84;5035556;28;20044;-61
2022/08/22 01:49:47;;;;;;;1.15;0.82;;;;;;;14.31;100.00;98213.28;5037497;28;20096;-60
2022/08/22 01:52:46;;;;;;;1.48;0.90;;;;;;;14.26;100.00;98221.56;5031896;28;20623;-60
2022/08/22 01:56:02;;;;;;;1.10;0.70;;;;;;;14.25;100.00;98213.81;5038877;28;20033;-62
2022/08/22 01:59:09;;;;;;;0.88;0.60;;;;;;;14.32;100.00;98214.91;5032949;28;20148;-61
2022/08/22 02:02:00;;;;;;;1.48;0.90;;;;;;;14.32;100.00;98214.06;5040366;28;20044;-60
2022/08/22 02:05:00;;;;;;;1.53;0.90;;;;;;;14.29;100.00;98210.78;5031665;28;20473;-59
2022/08/22 02:08:00;;;;;;;1.10;0.80;;;;;;;14.13;100.00;98197.38;5044689;28;20657;-59
2022/08/22 02:11:03;;;;;;;1.75;0.85;;;;;;;14.22;100.00;98206.19;5030545;28;20041;-59
2022/08/22 02:14:13;;;;;;;1.52;0.88;;;;;;;14.23;100.00;98197.34;5046481;28;20051;-59
2022/08/22 02:17:21;;;;;;;2.85;0.90;;;;;;;14.20;100.00;98200.25;5031607;28;20041;-60
2022/08/22 02:20:23;;;;;;;1.65;0.95;;;;;;;14.18;100.00;98205.69;5044139;28;20045;-59
2022/08/22 02:23:18;;;;;;;1.95;0.90;;;;;;;14.16;100.00;98203.19;5016913;28;20103;-60
2022/08/22 02:26:13;;;;;;;1.40;0.80;;;;;;;14.19;100.00;98207.31;5031746;28;20045;-60
2022/08/22 02:29:07;;;;;;;2.08;0.70;;;;;;;14.25;100.00;98188.31;5030786;28;20033;-60
2022/08/22 02:31:56;;;;;;;2.00;0.80;;;;;;;14.24;100.00;98202.47;5031014;28;20049;-60
2022/08/22 02:35:00;;;;;;;2.10;0.80;;;;;;;14.39;100.00;98194.09;5043287;28;20037;-61
2022/08/22 02:38:06;;;;;;;1.70;1.13;;;;;;;14.27;100.00;98196.91;5030682;28;20042;-60
2022/08/22 02:41:03;;;;;;;3.67;0.77;;;;;;;14.28;100.00;98195.13;5030205;28;20427;-60
2022/08/22 02:43:56;;;;;;;1.50;1.02;;;;;;;14.19;100.00;98194.16;5042853;28;20052;-61
2022/08/22 02:46:59;;;;;;;1.40;0.80;;;;;;;14.29;100.00;98202.88;5029380;28;20037;-61
2022/08/22 02:50:05;;;;;;;2.95;0.98;;;;;;;14.20;100.00;98206.34;5046687;28;20049;-59
2022/08/22 02:53:05;;;;;;;1.45;0.80;;;;;;;14.27;100.00;98186.38;5035648;28;20042;-60
2022/08/22 02:55:58;;;;;;;1.70;0.80;;;;;;;14.31;100.00;98202.72;5038945;28;20052;-61
2022/08/22 02:58:58;;;;;;;1.20;0.80;;;;;;;14.24;100.00;98199.00;5032567;28;20033;-60
2022/08/22 03:01:45;;;;;;;1.05;0.77;;;;;;;14.16;100.00;98190.00;5041872;28;20052;-60
2022/08/22 03:04:29;;;;;;;1.10;0.80;;;;;;;14.18;100.00;98202.19;5033744;28;20045;-60
2022/08/22 03:07:20;;;;;;;2.25;0.63;;;;;;;14.19;100.00;98185.41;5040620;28;20448;-61
2022/08/22 03:10:47;;;;;;;1.45;0.80;;;;;;;14.24;100.00;98193.72;5029443;28;20427;-60
2022/08/22 03:13:54;;;;;;;1.60;0.70;;;;;;;14.25;100.00;98193.59;5025632;28;20056;-62
2022/08/22 03:16:52;;;;;;;1.73;0.90;;;;;;;14.33;100.00;98200.75;5031167;28;20037;-59
2022/08/22 03:19:49;;;;;;;1.15;0.70;;;;;;;14.25;100.00;98190.94;5037017;28;20103;-59
2022/08/22 03:22:52;;;;;;;1.10;0.52;;;;;;;14.20;100.00;98192.38;5030134;28;20444;-59
2022/08/22 03:25:37;;;;;;;1.40;0.90;;;;;;;14.16;100.00;98197.06;5032724;28;20476;-59
2022/08/22 03:28:40;;;;;;;1.20;0.82;;;;;;;14.21;100.00;98201.91;5030732;28;20046;-59
2022/08/22 03:31:27;;;;;;;1.92;0.80;;;;;;;14.23;100.00;98197.34;5050930;28;20507;-61
2022/08/22 03:34:21;;;;;;;1.10;0.80;;;;;;;14.19;100.00;98203.84;5030797;28;20038;-61
2022/08/22 03:37:20;;;;;;;2.38;0.80;;;;;;;14.20;100.00;98205.53;5030985;28;20045;-61
2022/08/22 03:40:24;;;;;;;2.85;0.90;;;;;;;14.18;100.00;98205.69;5030877;28;20087;-63
2022/08/22 03:43:34;;;;;;;1.20;0.70;;;;;;;14.15;100.00;98204.13;5031568;28;20038;-60
2022/08/22 03:46:31;;;;;;;1.38;0.77;;;;;;;14.22;100.00;98200.94;5038192;28;20064;-63
2022/08/22 03:49:25;;;;;;;1.55;1.00;;;;;;;14.24;100.00;98204.25;5038082;28;20065;-60
2022/08/22 03:53:05;;;;;;;1.13;0.70;;;;;;;14.21;100.00;98196.66;5041198;28;20095;-61
2022/08/22 03:56:08;;;;;;;2.15;0.75;;;;;;;14.39;100.00;98200.19;5064402;28;20099;-60
2022/08/22 03:59:18;;;;;;;1.15;0.73;;;;;;;14.30;100.00;98190.50;5034387;28;20060;-64
2022/08/22 04:02:36;;;;;;;2.20;1.00;;;;;;;14.22;100.00;98196.50;5037656;28;20049;-60
2022/08/22 04:05:33;;;;;;;1.27;0.90;;;;;;;14.23;100.00;98200.78;5039896;28;20059;-60
2022/08/22 04:08:37;;;;;;;2.30;0.98;;;;;;;14.21;100.00;98196.66;5063551;28;20500;-64
2022/08/22 04:11:55;;;;;;;3.50;1.30;;;;;;;14.19;100.00;98201.22;5041411;28;20052;-59
2022/08/22 04:14:58;;;;;;;2.35;0.80;;;;;;;14.15;100.00;98205.97;5037899;28;20037;-61
2022/08/22 04:18:19;;;;;;;1.83;0.90;;;;;;;14.13;100.00;98198.16;5030641;28;20392;-61
2022/08/22 04:21:29;;;;;;;1.75;0.85;;;;;;;14.16;100.00;98191.81;5030899;28;20038;-60
2022/08/22 04:24:18;;;;;;;1.75;0.90;;;;;;;14.16;100.00;98197.91;5031886;28;20042;-60
2022/08/22 04:27:17;;;;;;;1.08;0.82;;;;;;;14.15;100.00;98195.44;5035243;28;20033;-59
2022/08/22 04:30:30;;;;;;;1.63;0.90;;;;;;;14.14;100.00;98193.75;5033882;28;20060;-59
2022/08/22 04:33:36;;;;;;;1.40;1.10;;;;;;;14.10;100.00;98195.81;5041709;28;20045;-62
2022/08/22 04:36:33;;;;;;;1.40;0.90;;;;;;;14.20;100.00;98200.25;5041042;28;20038;-61
2022/08/22 04:39:24;;;;;;;1.67;1.30;;;;;;;14.25;100.00;98200.66;5034084;28;20038;-61
2022/08/22 04:42:20;;;;;;;1.60;1.00;;;;;;;14.10;100.00;98195.81;5033355;28;20048;-61
2022/08/22 04:45:07;;;;;;;1.33;0.88;;;;;;;14.15;100.00;98205.97;5045257;28;20103;-61
2022/08/22 04:48:03;;;;;;;2.33;0.98;;;;;;;14.20;100.00;98210.81;5048438;28;20041;-61
2022/08/22 04:50:57;;;;;;;1.15;0.95;;;;;;;14.30;100.00;98198.41;5034032;28;20057;-62
2022/08/22 04:53:54;;;;;;;2.33;0.95;;;;;;;14.34;100.00;98215.63;5047882;28;20041;-60
2022/08/22 04:57:13;;;;;;;1.65;0.90;;;;;;;14.22;100.00;98207.03;5037979;28;20380;-61
2022/08/22 05:00:06;;;;;;;1.75;0.98;;;;;;;14.27;100.00;98214.50;5040623;28;20107;-59
2022/08/22 05:02:56;;;;;;;1.52;0.98;;;;;;;14.23;100.00;98208.69;5048708;28;20029;-59
2022/08/22 05:05:43;;;;;;;1.45;0.93;;;;;;;14.23;100.00;98221.06;5073173;28;20087;-62
2022/08/22 05:08:33;;;;;;;1.45;0.80;;;;;;;14.34;100.00;98222.69;5041001;28;20396;-61
2022/08/22 05:11:20;;;;;;;1.35;1.00;;;;;;;14.38;100.00;98222.25;5039617;28;20094;-60
2022/08/22 05:14:21;;;;;;;1.17;0.82;;;;;;;14.40;100.00;98219.47;5033494;28;20041;-60
2022/08/22 05:17:12;;;;;;;1.30;0.90;;;;;;;14.66;100.00;98216.19;5032002;28;20116;-61
2022/08/22 05:20:05;;;;;;;1.42;0.95;;;;;;;14.84;100.00;98220.72;5033665;28;20041;-59
2022/08/22 05:22:55;;;;;;;1.20;0.80;;;;;;;14.93;100.00;98221.66;5031987;28;20040;-59
2022/08/22 05:25:42;;;;;;;1.30;1.02;;;;;;;14.80;100.00;98229.91;5033191;28;20034;-60
2022/08/22 05:28:44;;;;;;;1.48;0.90;;;;;;;14.75;100.00;98223.22;5042357;28;20127;-60
2022/08/22 05:31:38;;;;;;;7.05;0.90;;;;;;;14.49;100.00;98238.88;5041797;28;20040;-60
2022/08/22 05:34:31;;;;;;;3.28;0.60;;;;;;;14.53;100.00;98238.44;5032007;28;20064;-57
2022/08/22 05:37:21;;;;;;;2.63;1.10;;;;;;;14.70;100.00;98253.63;5031455;28;20065;-58
2022/08/22 05:40:09;;;;;;;3.00;1.00;;;;;;;14.44;100.00;98251.63;5031994;28;20095;-57
2022/08/22 05:42:56;;;;;;;1.10;0.70;;;;;;;14.46;100.00;98249.69;5033254;28;20496;-58
2022/08/22 05:45:45;;;;;;;1.42;0.80;;;;;;;14.48;100.00;98248.56;5033214;28;20048;-57
2022/08/22 05:48:58;;;;;;;2.28;0.82;;;;;;;14.46;100.00;98266.31;5030119;28;20041;-56
2022/08/22 05:52:27;;;;;;;1.60;0.70;;;;;;;14.56;100.00;98268.13;5032409;28;20047;-58
2022/08/22 05:55:20;;;;;;;0.95;0.75;;;;;;;14.49;100.00;98259.94;5033156;28;20048;-58
2022/08/22 05:58:29;;;;;;;1.95;0.80;;;;;;;14.53;100.00;98253.41;5038502;28;20041;-58
2022/08/22 06:01:22;;;;;;;1.10;0.70;;;;;;;14.59;100.00;98262.56;5037472;28;20118;-58
2022/08/22 06:04:20;;;;;;;1.35;0.90;;;;;;;14.47;100.00;98259.25;5032170;28;20037;-58
2022/08/22 06:07:11;;;;;;;1.23;0.70;;;;;;;14.45;100.00;98261.19;5031788;28;20048;-59
2022/08/22 06:10:16;;;;;;;1.30;1.00;;;;;;;14.43;100.00;98268.44;5032375;28;20045;-59
2022/08/22 06:13:10;;;;;;;1.88;1.02;;;;;;;14.39;100.00;98267.88;5036811;28;20040;-59
2022/08/22 06:16:04;;;;;;;1.58;0.90;;;;;;;14.35;100.00;98261.22;5031705;28;20433;-59
2022/08/22 06:18:51;;;;;;;1.73;0.85;;;;;;;14.36;100.00;98266.34;5031881;28;20049;-60
2022/08/22 06:21:37;;;;;;;1.55;0.98;;;;;;;14.39;100.00;98273.16;5040775;28;20056;-59
2022/08/22 06:24:26;;;;;;;1.17;0.75;;;;;;;14.42;100.00;98264.97;5033034;28;20109;-59
2022/08/22 06:27:14;;;;;;;1.27;0.85;;;;;;;14.39;100.00;98254.72;5031955;28;20041;-59
2022/08/22 06:30:01;;;;;;;1.10;0.80;;;;;;;14.31;100.00;98273.03;5030844;28;20037;-59
2022/08/22 06:33:01;;;;;;;2.38;0.75;;;;;;;14.31;100.00;98259.84;5035318;28;20499;-60
2022/08/22 06:39:09;;;;;;;1.40;0.75;;;;;;;14.35;100.00;98264.69;5032212;28;20042;-60
2022/08/22 06:42:00;;;;;;;1.13;0.70;;;;;;;14.39;100.00;98273.97;5031961;28;20037;-60
2022/08/22 06:44:44;;;;;;;1.20;0.70;;;;;;;14.40;100.00;98269.53;5037136;28;20037;-61
2022/08/22 06:47:35;;;;;;;1.30;0.70;;;;;;;14.42;100.00;98270.22;5044976;28;20468;-60
2022/08/22 06:50:26;;;;;;;1.83;0.60;;;;;;;14.59;100.00;98271.28;5032205;28;20544;-61
2022/08/22 06:53:22;;;;;;;1.05;0.47;;;;;;;14.63;100.00;98279.75;5033000;28;20389;-60
2022/08/22 06:56:08;;;;;;;1.02;0.40;;;;;;;14.73;100.00;98277.06;5042179;28;20033;-61
2022/08/22 06:58:59;;;;;;;0.50;0.40;;;;;;;14.74;100.00;98290.09;5035713;28;20041;-61
2022/08/22 07:01:53;;;;;;;0.93;0.50;;;;;;;14.65;100.00;98286.56;5034053;28;20451;-60
2022/08/22 07:04:38;;;;;;;0.68;0.40;;;;;;;14.61;100.00;98287.78;5043988;28;20484;-59
2022/08/22 07:07:26;;;;;;;1.00;0.60;;;;;;;14.65;100.00;98280.44;5035540;28;20515;-61
2022/08/22 07:10:13;;;;;;;0.40;0.20;;;;;;;14.71;100.00;98284.28;5034125;28;20030;-58
2022/08/22 07:12:59;;;;;;;0.60;0.30;;;;;;;14.75;100.00;98289.13;5034216;28;20029;-59
2022/08/22 07:15:52;;;;;;;0.38;0.30;;;;;;;14.74;100.00;98282.19;5035935;28;20037;-56
2022/08/22 07:18:47;;;;;;;0.60;0.25;;;;;;;14.64;100.00;98287.50;5034047;28;20065;-57
2022/08/22 07:21:46;;;;;;;0.50;0.30;;;;;;;14.59;100.00;98288.91;5025600;28;20503;-58
2022/08/22 07:24:31;;;;;;;0.68;0.40;;;;;;;14.66;100.00;98295.25;5031356;28;20069;-58
2022/08/22 07:28:01;;;;;;;1.42;0.65;;;;;;;14.59;100.00;98284.47;5031294;28;20095;-58
2022/08/22 07:30:53;;;;;;;0.63;0.28;;;;;;;14.53;100.00;98291.16;5036422;28;20048;-57
2022/08/22 07:33:53;;;;;;;0.57;0.35;;;;;;;14.60;100.00;98288.78;5029346;28;20049;-60
2022/08/22 07:36:59;;;;;;;0.95;0.43;;;;;;;14.64;100.00;98279.59;5047389;28;20042;-60
2022/08/22 07:40:17;;;;;;;0.52;0.30;;;;;;;14.68;100.00;98285.41;5040830;28;20045;-58
2022/08/22 07:43:27;;;;;;;1.40;0.40;;;;;;;14.66;100.00;98285.56;5030503;28;20034;-58
2022/08/22 07:46:28;;;;;;;1.80;0.22;;;;;;;14.57;100.00;98286.44;5033396;28;20423;-58
2022/08/22 07:49:21;;;;;;;0.95;0.30;;;;;;;14.60;100.00;98287.94;5049586;28;20083;-60
2022/08/22 07:52:10;;;;;;;5.00;0.50;;;;;;;14.54;100.00;98292.00;5031362;28;20033;-59
2022/08/22 07:55:11;;;;;;;0.50;0.28;;;;;;;14.62;100.00;98294.72;5029988;28;20395;-58
2022/08/22 07:58:02;;;;;;;0.80;0.20;;;;;;;14.72;100.00;98293.88;5030899;28;20029;-59
2022/08/22 08:00:48;;;;;;;0.47;0.30;;;;;;;14.43;100.00;98292.97;5034707;28;20183;-59
2022/08/22 08:03:33;;;;;;;1.60;0.40;;;;;;;14.40;100.00;98298.50;5033427;28;20048;-60
2022/08/22 08:06:22;;;;;;;0.52;0.30;;;;;;;14.35;100.00;98292.84;5037209;28;20045;-59
2022/08/22 08:09:14;;;;;;;0.60;0.25;;;;;;;14.51;100.00;98294.88;5033411;28;20033;-59
2022/08/22 08:12:03;;;;;;;1.27;0.38;;;;;;;14.59;100.00;98289.72;5034900;28;20037;-61
2022/08/22 08:14:51;;;;;;;0.45;0.20;;;;;;;14.51;100.00;98301.00;5033567;28;20038;-59
2022/08/22 08:17:38;;;;;;;0.85;0.20;;;;;;;14.39;100.00;98292.41;5034384;28;20550;-59
2022/08/22 08:20:26;;;;;;;0.52;0.30;;;;;;;14.48;100.00;98293.38;5034777;28;20037;-58
2022/08/22 08:23:18;;;;;;;0.47;0.20;;;;;;;14.45;100.00;98300.72;5032281;28;20056;-58
2022/08/22 08:26:16;;;;;;;1.48;0.35;;;;;;;14.40;100.00;98294.09;5034493;28;20033;-59
2022/08/22 08:29:02;;;;;;;0.93;0.30;;;;;;;14.51;100.00;98298.34;5034265;28;20404;-59
2022/08/22 08:31:47;;;;;;;0.65;0.25;;;;;;;14.48;100.00;98298.66;5042771;28;20381;-58
2022/08/22 08:34:32;;;;;;;0.70;0.20;;;;;;;14.47;100.00;98297.00;5037724;28;20430;-62
2022/08/22 08:37:26;;;;;;;0.57;0.30;;;;;;;14.51;100.00;98294.88;5034275;28;20049;-58
2022/08/22 08:40:31;;;;;;;0.52;0.20;;;;;;;14.55;100.00;98304.19;5034192;28;20128;-58
2022/08/22 08:43:26;;;;;;;0.28;0.20;;;;;;;14.48;100.00;98295.16;5051719;28;20108;-58
2022/08/22 08:46:41;;;;;;;0.77;0.30;;;;;;;14.48;100.00;98303.06;5037394;28;20037;-58
2022/08/22 08:49:41;;;;;;;1.35;0.30;;;;;;;14.54;100.00;98313.06;5034222;28;20041;-59
2022/08/22 08:52:35;;;;;;;0.20;0.20;;;;;;;14.64;100.00;98311.22;5033878;28;20051;-59
2022/08/22 08:55:36;;;;;;;0.20;0.20;;;;;;;14.60;100.00;98315.13;5046521;28;20102;-59
2022/08/22 08:58:36;;;;;;;0.88;0.20;;;;;;;14.44;100.00;98321.00;5063588;28;20117;-59
2022/08/22 09:01:39;;;;;;;0.60;0.32;;;;;;;14.45;100.00;98320.00;5041756;28;20041;-57
2022/08/22 09:05:14;;;;;;;0.35;0.20;;;;;;;14.52;100.00;98315.84;5034061;28;20088;-60
2022/08/22 09:08:24;;;;;;;0.70;0.40;;;;;;;14.48;100.00;98322.38;5032304;28;20469;-59
2022/08/22 09:11:31;;;;;;;1.15;0.60;;;;;;;14.60;100.00;98320.41;5033902;28;20048;-60
2022/08/22 09:15:24;;;;;;;0.65;0.30;;;;;;;14.65;100.00;98322.63;5035511;28;20103;-59
2022/08/22 09:18:28;;;;;;;2.63;0.40;;;;;;;14.62;100.00;98320.25;5032332;28;20382;-59
2022/08/22 09:21:37;;;;;;;1.55;0.25;;;;;;;14.64;100.00;98334.09;5034411;28;20052;-60
2022/08/22 09:24:37;;;;;;;1.02;0.40;;;;;;;14.77;100.00;98328.56;5046414;28;20101;-58
2022/08/22 09:27:52;;;;;;;1.35;0.40;;;;;;;14.51;100.00;98332.63;5035019;28;20435;-65
2022/08/22 09:30:54;;;;;;;1.38;0.32;;;;;;;14.68;100.00;98332.03;5041044;28;20045;-57
2022/08/22 09:33:57;;;;;;;0.75;0.40;;;;;;;14.52;100.00;98339.56;5033035;28;20174;-57
2022/08/22 09:37:12;;;;;;;0.47;0.45;;;;;;;14.48;100.00;98332.91;5033370;28;20037;-59
2022/08/22 09:40:00;;;;;;;0.75;0.40;;;;;;;14.35;100.00;98341.09;5043236;28;20099;-60
2022/08/22 09:43:23;;;;;;;0.77;0.38;;;;;;;14.22;100.00;98335.28;5034393;28;20055;-58
2022/08/22 09:46:18;;;;;;;0.95;0.50;;;;;;;14.25;100.00;98335.00;5053549;28;20057;-58
2022/08/22 09:49:34;;;;;;;0.75;0.50;;;;;;;14.18;100.00;98337.38;5018062;28;20099;-58
2022/08/22 09:52:48;;;;;;;0.40;0.30;;;;;;;14.23;100.00;98344.88;5038457;28;20037;-58
2022/08/22 09:55:54;;;;;;;0.50;0.38;;;;;;;14.24;100.00;98344.72;5041746;28;20117;-58
2022/08/22 09:58:47;;;;;;;0.60;0.25;;;;;;;14.32;100.00;98351.91;5032151;28;20076;-58
2022/08/22 10:01:42;;;;;;;0.50;0.30;;;;;;;14.40;100.00;98348.56;5047854;28;20564;-58
2022/08/22 10:04:43;;;;;;;0.50;0.22;;;;;;;14.33;100.00;98350.94;5031499;28;20495;-58
2022/08/22 10:07:38;;;;;;;0.80;0.40;;;;;;;14.27;100.00;98347.06;5040900;28;20037;-58
2022/08/22 10:10:38;;;;;;;0.68;0.40;;;;;;;14.29;100.00;98342.50;5031397;28;20037;-56
2022/08/22 10:13:23;;;;;;;0.57;0.47;;;;;;;14.29;100.00;98344.28;5040964;28;20056;-60
2022/08/22 10:16:31;;;;;;;0.52;0.40;;;;;;;14.34;100.00;98344.72;5042295;28;20073;-59
2022/08/22 10:19:21;;;;;;;0.73;0.50;;;;;;;14.46;100.00;98345.38;5037715;28;20061;-58
2022/08/22 10:22:32;;;;;;;1.20;0.50;;;;;;;14.44;100.00;98351.78;5043477;28;20052;-60
2022/08/22 10:25:30;;;;;;;0.70;0.40;;;;;;;14.52;100.00;98349.28;5038678;28;20041;-60
2022/08/22 10:28:38;;;;;;;1.17;0.50;;;;;;;14.59;100.00;98353.00;5032162;28;20095;-60
2022/08/22 10:31:49;;;;;;;0.50;0.40;;;;;;;14.60;100.00;98353.84;5042136;28;20040;-60
2022/08/22 10:34:40;;;;;;;0.85;0.32;;;;;;;14.82;100.00;98352.69;5045342;28;20041;-60
2022/08/22 10:37:29;;;;;;;1.08;0.40;;;;;;;14.72;100.00;98354.50;5044996;28;20522;-62
2022/08/22 10:40:32;;;;;;;1.33;0.40;;;;;;;14.71;100.00;98351.03;5039969;28;20128;-60
2022/08/22 10:43:34;;;;;;;1.98;0.40;;;;;;;14.76;100.00;98353.25;5041220;28;20041;-60
2022/08/22 10:46:37;;;;;;;1.73;0.43;;;;;;;14.84;100.00;98353.41;5036213;28;20029;-61
2022/08/22 10:49:34;;;;;;;0.45;0.30;;;;;;;14.92;100.00;98357.94;5048006;28;20107;-61
2022/08/22 10:52:29;;;;;;;2.53;0.30;;;;;;;14.77;100.00;98352.28;5020583;28;20534;-60
2022/08/22 10:55:22;;;;;;;0.40;0.20;;;;;;;14.89;100.00;98359.06;5029867;28;20428;-60
2022/08/22 10:58:11;;;;;;;0.65;0.20;;;;;;;15.18;100.00;98359.13;5044358;28;20037;-60
2022/08/22 11:01:00;;;;;;;0.68;0.25;;;;;;;15.11;100.00;98359.69;5030691;28;20041;-61
2022/08/22 11:04:15;;;;;;;0.50;0.25;;;;;;;15.12;100.00;98356.09;5031429;28;20033;-61
2022/08/22 11:07:32;;;;;;;0.63;0.30;;;;;;;15.14;100.00;98361.22;5039311;28;20067;-60
2022/08/22 11:10:50;;;;;;;0.38;0.20;;;;;;;15.47;100.00;98358.16;5030040;28;20052;-59
2022/08/22 11:14:07;;;;;;;0.30;0.17;;;;;;;15.47;100.00;98356.34;5029614;28;20457;-59
2022/08/22 11:17:16;;;;;;;0.45;0.20;;;;;;;15.43;100.00;98356.78;5043785;28;20045;-59
2022/08/22 11:20:19;;;;;;;0.68;0.38;;;;;;;15.36;100.00;98362.66;5035509;28;20072;-60
2022/08/22 11:23:16;;;;;;;0.80;0.40;;;;;;;15.51;100.00;98357.72;5030581;28;20046;-59
2022/08/22 11:26:21;;;;;;;1.20;0.30;;;;;;;15.59;100.00;98364.06;5029540;28;20378;-59
2022/08/22 11:29:28;;;;;;;0.32;0.22;;;;;;;15.68;100.00;98357.91;5033064;28;20048;-59
2022/08/22 11:32:15;;;;;;;0.80;0.30;;;;;;;15.72;100.00;98369.81;5043296;28;20068;-59
2022/08/22 11:35:04;;;;;;;1.75;0.50;;;;;;;15.71;100.00;98369.97;5061462;28;20041;-59
2022/08/22 11:38:05;;;;;;;1.42;0.47;;;;;;;15.33;100.00;98368.22;5047825;28;20082;-59
2022/08/22 11:40:50;;;;;;;1.33;0.32;;;;;;;15.46;100.00;98372.31;5030559;28;20588;-59
2022/08/22 11:43:58;;;;;;;0.65;0.30;;;;;;;15.56;100.00;98370.47;5062335;28;20049;-59
2022/08/22 11:46:46;;;;;;;1.42;0.40;;;;;;;15.48;100.00;98373.84;5037521;28;20080;-58
2022/08/22 11:49:37;;;;;;;0.70;0.30;;;;;;;15.25;100.00;98366.31;4991855;28;1161617;-59
2022/08/22 11:52:33;;;;;;;0.70;0.40;;;;;;;15.31;100.00;98364.88;5057555;28;20048;-59
2022/08/22 11:55:29;;;;;;;1.38;0.38;;;;;;;15.19;100.00;98366.06;5030219;28;20045;-59
2022/08/22 11:58:20;;;;;;;0.75;0.35;;;;;;;15.31;100.00;98370.16;5030287;28;20042;-59
2022/08/22 12:01:17;;;;;;;1.30;0.40;;;;;;;15.41;100.00;98369.31;5046197;28;20069;-59
2022/08/22 12:04:09;;;;;;;1.52;0.40;;;;;;;15.47;100.00;98368.72;5044167;28;20049;-59
2022/08/22 12:07:07;;;;;;;0.50;0.30;;;;;;;15.54;100.00;98374.25;5033441;28;20052;-59
2022/08/22 12:10:08;;;;;;;0.60;0.40;;;;;;;15.44;100.00;98377.75;5036640;28;20037;-59
2022/08/22 12:13:00;;;;;;;0.88;0.30;;;;;;;15.49;100.00;98378.16;5031415;28;20053;-59
2022/08/22 12:16:13;;;;;;;0.70;0.35;;;;;;;15.40;100.00;98368.47;5029909;28;20123;-59
2022/08/22 12:19:27;;;;;;;0.88;0.40;;;;;;;15.46;100.00;98381.06;5030964;28;20470;-59
2022/08/22 12:22:37;;;;;;;0.70;0.40;;;;;;;15.55;100.00;98374.09;5042626;28;20048;-59
2022/08/22 12:25:49;;;;;;;0.88;0.30;;;;;;;15.44;100.00;98380.38;5035700;28;20045;-59
2022/08/22 12:28:55;;;;;;;1.90;0.60;;;;;;;15.37;100.00;98371.41;5052835;28;20088;-59
2022/08/22 12:32:10;;;;;;;0.95;0.43;;;;;;;15.27;100.00;98366.16;5043967;28;20060;-60
2022/08/22 12:35:20;;;;;;;1.25;0.50;;;;;;;15.21;100.00;98362.28;5036547;28;20041;-59
2022/08/22 12:38:32;;;;;;;0.98;0.60;;;;;;;15.23;100.00;98364.78;5057523;28;20546;-59
2022/08/22 12:42:05;;;;;;;1.95;0.60;;;;;;;15.21;100.00;98353.56;5029914;28;20092;-59
2022/08/22 12:45:27;;;;;;;1.05;0.40;;;;;;;15.31;100.00;98359.59;5029516;28;20046;-59
2022/08/22 12:48:30;;;;;;;1.52;0.47;;;;;;;15.36;100.00;98369.72;5031656;28;20041;-58
2022/08/22 12:51:15;;;;;;;1.48;0.47;;;;;;;15.47;100.00;98376.63;4994236;28;20042;-59
2022/08/22 12:54:25;;;;;;;0.70;0.50;;;;;;;15.36;100.00;98375.00;4988207;28;20044;-59
2022/08/22 12:57:44;;;;;;;3.55;0.70;;;;;;;15.34;100.00;98382.25;5006438;28;20046;-58
2022/08/22 13:00:34;;;;;;;1.20;0.55;;;;;;;15.13;100.00;98381.47;4994142;28;20047;-59
2022/08/22 13:03:32;;;;;;;0.80;0.40;;;;;;;15.33;100.00;98378.78;4994482;28;20066;-59
2022/08/22 13:06:32;;;;;;;0.73;0.45;;;;;;;15.51;100.00;98375.34;4993427;28;20093;-58
2022/08/22 13:09:29;;;;;;;1.75;0.43;;;;;;;15.69;100.00;98377.19;5000865;28;20041;-58
2022/08/22 13:12:20;;;;;;;1.27;0.52;;;;;;;15.76;100.00;98383.56;4999436;28;20112;-59
2022/08/22 13:15:20;;;;;;;0.82;0.60;;;;;;;15.84;100.00;98378.38;4998226;28;20049;-59
2022/08/22 13:18:15;;;;;;;0.80;0.40;;;;;;;16.17;100.00;98371.78;4994823;28;20046;-59
2022/08/22 13:21:04;;;;;;;0.70;0.40;;;;;;;16.19;100.00;98369.81;4989712;28;20500;-59
2022/08/22 13:23:54;;;;;;;1.25;0.50;;;;;;;16.57;100.00;98377.56;4996473;28;20141;-61
2022/08/22 13:26:51;;;;;;;0.60;0.40;;;;;;;16.18;100.00;98386.66;4994932;28;20129;-58
2022/08/22 13:30:07;;;;;;;0.85;0.30;;;;;;;16.21;100.00;98394.25;4994935;28;20039;-58
2022/08/22 13:33:00;;;;;;;1.05;0.55;;;;;;;16.06;100.00;98386.06;4996954;28;20061;-60
2022/08/22 13:35:49;;;;;;;0.88;0.43;;;;;;;15.93;100.00;98381.91;5003448;28;20398;-59
2022/08/22 13:38:43;;;;;;;0.82;0.43;;;;;;;15.77;100.00;98378.13;4996361;28;20050;-59
2022/08/22 13:41:32;;;;;;;2.00;0.45;;;;;;;15.86;100.00;98383.50;4993703;28;20035;-60
2022/08/22 13:44:39;;;;;;;3.20;0.95;;;;;;;15.94;100.00;98382.75;5002466;28;20056;-58
2022/08/22 13:47:27;;;;;;;0.90;0.40;;;;;;;15.74;100.00;98385.50;5005267;28;20049;-58
2022/08/22 13:50:17;;;;;;;0.90;0.40;;;;;;;15.55;100.00;98379.38;5020436;28;20400;-61
2022/08/22 13:53:18;;;;;;;1.02;0.75;;;;;;;15.86;100.00;98384.31;5068109;28;20392;-53
2022/08/22 13:56:15;;;;;;;0.73;0.47;;;;;;;16.63;100.00;98369.00;5044566;28;20232;-53
2022/08/22 13:59:13;;;;;;;0.65;0.40;;;;;;;16.88;100.00;98369.19;5072950;28;20303;-52